createdAt,value
2023-03-31T00:02:13.720Z,49.30
2023-03-31T00:04:52.584Z,49.20
2023-03-31T00:07:23.493Z,49.30
2023-03-31T00:10:03.605Z,49.10
2023-03-31T00:12:33.915Z,49.00
2023-03-31T00:15:00.757Z,49.00
2023-03-31T00:17:27.444Z,49.20
2023-03-31T00:20:00.393Z,49.10
2023-03-31T00:22:27.754Z,49.00
2023-03-31T00:24:54.604Z,48.90
2023-03-31T00:27:21.386Z,49.30
2023-03-31T00:29:50.739Z,49.20
2023-03-31T00:32:17.575Z,49.10
2023-03-31T00:34:46.205Z,49.10
2023-03-31T00:37:14.832Z,49.20
2023-03-31T00:39:42.198Z,49.10
2023-03-31T00:42:14.989Z,49.00
2023-03-31T00:45:18.847Z,49.20
2023-03-31T00:47:51.437Z,49.00
2023-03-31T00:50:26.016Z,49.00
2023-03-31T00:53:00.956Z,49.00
2023-03-31T00:55:34.465Z,48.90
2023-03-31T00:58:03.322Z,48.90
2023-03-31T01:00:30.233Z,49.20
2023-03-31T01:03:02.228Z,49.00
2023-03-31T01:06:10.369Z,49.20
2023-03-31T01:08:38.356Z,49.20
2023-03-31T01:11:07.609Z,48.90
2023-03-31T01:13:37.120Z,49.00
2023-03-31T01:16:04.146Z,49.40
2023-03-31T01:18:34.827Z,49.60
2023-03-31T01:21:33.927Z,50.00
2023-03-31T01:24:25.286Z,50.60
2023-03-31T01:27:13.874Z,51.10
2023-03-31T01:30:09.258Z,51.10
2023-03-31T01:32:48.306Z,51.10
2023-03-31T01:35:39.829Z,51.10
2023-03-31T01:38:51.433Z,50.80
2023-03-31T01:41:18.768Z,51.00
2023-03-31T01:43:53.261Z,51.00
2023-03-31T01:46:19.900Z,51.40
2023-03-31T01:48:55.013Z,51.70
2023-03-31T01:52:08.525Z,51.00
2023-03-31T01:54:52.573Z,51.10
2023-03-31T01:57:35.924Z,51.00
2023-03-31T02:00:05.649Z,51.30
2023-03-31T02:02:38.531Z,51.20
2023-03-31T02:05:13.492Z,51.10
2023-03-31T02:07:46.253Z,51.20
2023-03-31T02:10:14.927Z,51.20
2023-03-31T02:12:44.584Z,51.10
2023-03-31T02:15:16.037Z,51.00
2023-03-31T02:17:46.026Z,51.10
2023-03-31T02:20:15.963Z,51.40
2023-03-31T02:22:47.913Z,51.30
2023-03-31T02:25:19.251Z,51.40
2023-03-31T02:27:54.782Z,51.50
2023-03-31T02:30:21.733Z,51.50
2023-03-31T02:32:48.480Z,51.70
2023-03-31T02:35:17.987Z,51.80
2023-03-31T02:37:46.459Z,52.00
2023-03-31T02:40:19.258Z,52.00
2023-03-31T02:42:46.457Z,52.20
2023-03-31T02:45:51.310Z,52.20
2023-03-31T02:48:26.669Z,52.40
2023-03-31T02:51:02.272Z,52.50
2023-03-31T02:53:57.972Z,52.70
2023-03-31T02:57:01.816Z,53.10
2023-03-31T02:59:50.172Z,52.90
2023-03-31T03:02:37.194Z,52.90
2023-03-31T03:05:20.164Z,53.00
2023-03-31T03:07:50.977Z,53.20
2023-03-31T03:10:21.148Z,53.20
2023-03-31T03:13:38.182Z,53.00
2023-03-31T03:16:19.205Z,52.90
2023-03-31T03:19:03.157Z,53.00
2023-03-31T03:21:30.496Z,53.30
2023-03-31T03:23:57.795Z,53.10
2023-03-31T03:26:27.991Z,53.10
2023-03-31T03:28:56.655Z,53.20
2023-03-31T03:31:25.950Z,53.50
2023-03-31T03:33:53.647Z,53.40
2023-03-31T03:36:20.915Z,53.30
2023-03-31T03:38:47.636Z,53.40
2023-03-31T03:41:14.353Z,53.30
2023-03-31T03:43:41.078Z,53.40
2023-03-31T03:46:08.064Z,53.20
2023-03-31T03:48:35.197Z,53.40
2023-03-31T03:51:02.313Z,53.50
2023-03-31T03:53:29.319Z,53.50
2023-03-31T03:55:56.165Z,53.60
2023-03-31T03:58:22.994Z,53.50
2023-03-31T04:00:49.653Z,53.40
2023-03-31T04:03:16.709Z,53.70
2023-03-31T04:05:43.637Z,53.50
2023-03-31T04:08:10.594Z,53.70
2023-03-31T04:10:37.332Z,53.40
2023-03-31T04:13:04.111Z,53.50
2023-03-31T04:15:31.019Z,53.50
2023-03-31T04:17:58.328Z,53.40
2023-03-31T04:20:27.971Z,53.60
2023-03-31T04:22:54.887Z,53.60
2023-03-31T04:25:22.768Z,53.30
2023-03-31T04:27:56.062Z,53.50
2023-03-31T04:30:24.684Z,53.30
2023-03-31T04:33:02.750Z,53.40
2023-03-31T04:35:49.824Z,53.20
2023-03-31T04:38:24.043Z,53.30
2023-03-31T04:40:52.607Z,53.20
2023-03-31T04:43:20.976Z,53.50
2023-03-31T04:45:47.749Z,53.50
2023-03-31T04:48:14.438Z,53.60
2023-03-31T04:50:41.218Z,53.60
2023-03-31T04:53:08.540Z,53.80
2023-03-31T04:55:35.438Z,53.70
2023-03-31T04:58:02.226Z,53.70
2023-03-31T05:00:29.982Z,53.70
2023-03-31T05:02:57.177Z,53.70
2023-03-31T05:05:24.070Z,53.70
2023-03-31T05:07:50.830Z,53.90
2023-03-31T05:10:17.726Z,53.90
2023-03-31T05:12:44.740Z,53.90
2023-03-31T05:15:11.717Z,54.00
2023-03-31T05:17:38.436Z,54.00
2023-03-31T05:20:09.514Z,54.00
2023-03-31T05:22:38.068Z,54.20
2023-03-31T05:25:07.577Z,54.20
2023-03-31T05:27:35.704Z,54.40
2023-03-31T05:30:03.787Z,54.20
2023-03-31T05:32:30.548Z,54.20
2023-03-31T05:34:57.851Z,54.40
2023-03-31T05:37:25.985Z,54.30
2023-03-31T05:39:53.267Z,54.30
2023-03-31T05:42:21.149Z,54.30
2023-03-31T05:44:47.876Z,54.00
2023-03-31T05:47:15.127Z,54.00
2023-03-31T05:49:42.197Z,54.00
2023-03-31T05:52:09.640Z,54.10
2023-03-31T05:54:36.387Z,54.20
2023-03-31T05:57:03.693Z,54.00
2023-03-31T05:59:30.807Z,54.10
2023-03-31T06:01:58.432Z,54.20
2023-03-31T06:04:25.499Z,54.10
2023-03-31T06:06:54.021Z,54.10
2023-03-31T06:09:21.226Z,54.00
2023-03-31T06:11:50.434Z,53.80
2023-03-31T06:14:17.628Z,53.80
2023-03-31T06:16:44.457Z,53.90
2023-03-31T06:19:11.153Z,53.80
2023-03-31T06:21:37.856Z,53.70
2023-03-31T06:24:04.807Z,53.80
2023-03-31T06:26:31.623Z,53.50
2023-03-31T06:28:58.385Z,53.40
2023-03-31T06:31:25.310Z,53.60
2023-03-31T06:33:52.917Z,53.80
2023-03-31T06:36:21.926Z,53.70
2023-03-31T06:38:50.075Z,53.70
2023-03-31T06:41:18.542Z,53.80
2023-03-31T06:43:45.503Z,53.90
2023-03-31T06:46:12.535Z,53.80
2023-03-31T06:48:39.524Z,54.10
2023-03-31T06:51:07.677Z,53.90
2023-03-31T06:53:35.054Z,54.00
2023-03-31T06:56:01.969Z,54.30
2023-03-31T06:58:31.398Z,54.10
2023-03-31T07:00:59.101Z,54.10
2023-03-31T07:03:26.209Z,54.20
2023-03-31T07:05:54.318Z,54.10
2023-03-31T07:08:21.633Z,54.50
2023-03-31T07:10:50.229Z,54.60
2023-03-31T07:13:17.920Z,54.50
2023-03-31T07:15:47.565Z,54.50
2023-03-31T07:18:15.807Z,54.70
2023-03-31T07:20:43.301Z,54.70
2023-03-31T07:23:10.068Z,54.60
2023-03-31T07:25:36.886Z,54.60
2023-03-31T07:28:05.067Z,54.70
2023-03-31T07:30:32.263Z,54.60
2023-03-31T07:32:59.186Z,54.60
2023-03-31T07:35:25.974Z,54.60
2023-03-31T07:37:52.788Z,55.20
2023-03-31T07:40:25.941Z,54.70
2023-03-31T07:42:53.637Z,54.70
2023-03-31T07:45:22.208Z,54.60
2023-03-31T07:47:49.566Z,54.60
2023-03-31T07:50:16.767Z,54.70
2023-03-31T07:52:46.303Z,54.70
2023-03-31T07:55:14.368Z,54.70
2023-03-31T07:57:42.155Z,55.10
2023-03-31T08:00:12.384Z,55.20
2023-03-31T08:02:42.741Z,55.10
2023-03-31T08:05:11.992Z,55.10
2023-03-31T08:07:40.108Z,55.10
2023-03-31T08:10:09.600Z,54.60
2023-03-31T08:12:36.542Z,54.80
2023-03-31T08:15:04.478Z,54.70
2023-03-31T08:17:31.455Z,54.80
2023-03-31T08:20:01.631Z,54.70
2023-03-31T08:22:30.701Z,55.00
2023-03-31T08:24:57.394Z,55.30
2023-03-31T08:27:26.093Z,55.10
2023-03-31T08:29:52.903Z,55.00
2023-03-31T08:32:23.383Z,55.10
2023-03-31T08:34:50.528Z,55.10
2023-03-31T08:37:17.344Z,55.00
2023-03-31T08:39:44.044Z,54.70
2023-03-31T08:42:26.267Z,54.90
2023-03-31T08:45:19.345Z,54.90
2023-03-31T08:47:49.024Z,54.70
2023-03-31T08:50:19.612Z,54.80
2023-03-31T08:52:53.408Z,54.80
2023-03-31T08:55:29.426Z,54.80
2023-03-31T08:58:03.799Z,54.80
2023-03-31T09:00:41.234Z,54.70
2023-03-31T09:03:31.660Z,54.60
2023-03-31T09:06:06.483Z,54.60
2023-03-31T09:08:38.563Z,54.80
2023-03-31T09:11:12.204Z,54.50
2023-03-31T09:14:00.460Z,55.00
2023-03-31T09:16:55.899Z,55.10
2023-03-31T09:19:49.743Z,55.10
2023-03-31T09:22:24.247Z,55.10
2023-03-31T09:25:27.213Z,55.30
2023-03-31T09:27:57.156Z,55.10
2023-03-31T09:30:30.033Z,55.10
2023-03-31T09:33:34.165Z,55.10
2023-03-31T09:36:02.988Z,55.40
2023-03-31T09:38:31.117Z,55.20
2023-03-31T09:40:59.925Z,55.20
2023-03-31T09:43:29.090Z,55.00
2023-03-31T09:48:30.550Z,54.60
2023-03-31T09:51:03.970Z,54.70
2023-03-31T09:53:52.731Z,54.70
2023-03-31T09:56:42.071Z,54.40
2023-03-31T09:59:15.851Z,54.50
2023-03-31T10:01:45.611Z,54.10
2023-03-31T10:04:21.828Z,53.90
2023-03-31T10:06:49.179Z,54.10
2023-03-31T10:09:17.123Z,54.30
2023-03-31T10:12:17.485Z,54.10
2023-03-31T10:14:50.576Z,54.20
2023-03-31T10:17:23.363Z,54.30
2023-03-31T10:19:59.053Z,54.40
2023-03-31T10:22:31.186Z,54.30
2023-03-31T10:25:14.519Z,54.30
2023-03-31T10:27:42.432Z,54.20
2023-03-31T10:30:12.738Z,54.00
2023-03-31T10:32:43.205Z,54.10
2023-03-31T10:35:27.621Z,54.00
2023-03-31T10:38:13.533Z,53.70
2023-03-31T10:40:53.108Z,53.60
2023-03-31T10:43:33.969Z,53.50
2023-03-31T10:46:01.319Z,53.40
2023-03-31T10:48:31.210Z,53.70
2023-03-31T10:51:24.696Z,53.80
2023-03-31T10:53:54.237Z,53.60
2023-03-31T10:56:35.154Z,53.50
2023-03-31T10:59:23.538Z,53.50
2023-03-31T11:02:28.205Z,53.20
2023-03-31T11:05:25.332Z,53.00
2023-03-31T11:08:13.618Z,52.70
2023-03-31T11:10:59.105Z,52.70
2023-03-31T11:13:55.753Z,52.70
2023-03-31T11:16:41.680Z,52.60
2023-03-31T11:19:17.693Z,52.50
2023-03-31T11:21:56.311Z,52.50
2023-03-31T11:24:32.870Z,52.80
2023-03-31T11:27:14.648Z,52.70
2023-03-31T11:29:48.732Z,52.60
2023-03-31T11:32:32.430Z,52.10
2023-03-31T11:35:21.334Z,51.60
2023-03-31T11:38:11.705Z,50.10
2023-03-31T11:40:56.917Z,50.80
2023-03-31T11:43:44.636Z,51.10
2023-03-31T11:46:23.030Z,51.80
2023-03-31T11:49:22.741Z,51.60
2023-03-31T11:52:14.442Z,51.40
2023-03-31T11:54:47.067Z,51.30
2023-03-31T11:57:29.323Z,51.40
2023-03-31T12:00:07.298Z,51.60
2023-03-31T12:03:02.233Z,51.60
2023-03-31T12:05:33.130Z,51.40
2023-03-31T12:08:05.951Z,52.10
2023-03-31T12:10:43.543Z,52.40
2023-03-31T12:13:31.749Z,52.50
2023-03-31T12:16:22.184Z,52.80
2023-03-31T12:19:23.117Z,52.80
2023-03-31T12:22:17.574Z,52.50
2023-03-31T12:24:44.591Z,53.00
2023-03-31T12:27:39.046Z,52.90
2023-03-31T12:30:06.279Z,52.60
2023-03-31T12:32:37.539Z,52.40
2023-03-31T12:35:06.827Z,52.10
2023-03-31T12:38:14.961Z,52.10
2023-03-31T12:41:01.712Z,52.10
2023-03-31T12:43:28.384Z,52.20
2023-03-31T12:46:04.531Z,52.20
2023-03-31T12:48:49.512Z,52.20
2023-03-31T12:51:31.075Z,52.40
2023-03-31T12:54:39.073Z,52.30
2023-03-31T12:57:23.955Z,52.00
2023-03-31T13:00:12.758Z,51.90
2023-03-31T13:02:43.204Z,52.10
2023-03-31T13:05:36.182Z,52.10
2023-03-31T13:08:10.464Z,52.20
2023-03-31T13:10:59.243Z,52.00
2023-03-31T13:13:26.971Z,52.10
2023-03-31T13:15:56.582Z,52.10
2023-03-31T13:18:24.616Z,52.00
2023-03-31T13:21:00.194Z,52.00
2023-03-31T13:23:34.285Z,52.00
2023-03-31T13:26:01.595Z,52.10
2023-03-31T13:28:33.292Z,52.10
2023-03-31T13:31:09.199Z,52.30
2023-03-31T13:33:46.912Z,52.30
2023-03-31T13:36:36.402Z,52.40
2023-03-31T13:39:12.955Z,52.40
2023-03-31T13:42:19.629Z,52.40
2023-03-31T13:44:52.877Z,52.40
2023-03-31T13:47:51.379Z,52.30
2023-03-31T13:50:36.073Z,52.30
2023-03-31T13:53:32.440Z,52.10
2023-03-31T13:56:09.914Z,52.30
2023-03-31T13:59:07.571Z,52.50
2023-03-31T14:01:46.393Z,52.80
2023-03-31T14:04:35.557Z,52.70
2023-03-31T14:07:20.318Z,52.60
2023-03-31T14:09:49.905Z,52.70
2023-03-31T14:12:30.245Z,52.80
2023-03-31T14:14:57.408Z,52.70
2023-03-31T14:17:28.475Z,52.70
2023-03-31T14:20:22.429Z,52.70
2023-03-31T14:23:01.691Z,52.80
2023-03-31T14:25:46.308Z,52.70
2023-03-31T14:28:18.727Z,52.70
2023-03-31T14:31:13.407Z,51.90
2023-03-31T14:34:05.367Z,51.50
2023-03-31T14:36:41.683Z,50.60
2023-03-31T14:39:11.745Z,50.20
2023-03-31T14:41:38.507Z,50.20
2023-03-31T14:44:14.068Z,50.10
2023-03-31T14:46:40.857Z,49.50
2023-03-31T14:49:41.930Z,49.10
2023-03-31T14:52:23.466Z,49.80
2023-03-31T14:54:53.049Z,48.90
2023-03-31T14:57:25.623Z,48.20
2023-03-31T14:59:54.287Z,48.40
2023-03-31T15:02:32.815Z,48.30
2023-03-31T15:05:04.335Z,48.00
2023-03-31T15:07:31.530Z,48.00
2023-03-31T15:09:58.428Z,48.90
2023-03-31T15:12:26.042Z,48.10
2023-03-31T15:14:58.675Z,47.70
2023-03-31T15:17:30.154Z,47.40
2023-03-31T15:20:04.545Z,47.60
2023-03-31T15:22:31.520Z,47.70
2023-03-31T15:24:58.343Z,48.00
2023-03-31T15:27:37.976Z,48.30
2023-03-31T15:30:26.115Z,47.70
2023-03-31T15:32:56.835Z,47.50
2023-03-31T15:35:34.582Z,47.40
2023-03-31T15:38:05.131Z,47.10
2023-03-31T15:40:39.563Z,47.20
2023-03-31T15:43:20.238Z,47.40
2023-03-31T15:45:54.018Z,47.90
2023-03-31T15:48:28.712Z,48.60
2023-03-31T15:51:03.595Z,49.40
2023-03-31T15:53:32.445Z,49.90
2023-03-31T15:56:00.034Z,50.10
2023-03-31T15:58:47.436Z,50.50
2023-03-31T16:01:16.007Z,50.40
2023-03-31T16:03:45.691Z,50.70
2023-03-31T16:06:32.174Z,50.90
2023-03-31T16:09:08.171Z,51.00
2023-03-31T16:11:50.891Z,51.20
2023-03-31T16:14:29.224Z,51.30
2023-03-31T16:17:05.881Z,51.60
2023-03-31T16:19:43.218Z,51.60
2023-03-31T16:22:16.151Z,51.40
2023-03-31T16:24:42.987Z,51.60
2023-03-31T16:27:09.840Z,51.50
2023-03-31T16:29:37.977Z,51.40
2023-03-31T16:32:11.469Z,51.40
2023-03-31T16:35:00.649Z,51.30
2023-03-31T16:37:27.388Z,51.20
2023-03-31T16:39:54.836Z,51.30
2023-03-31T16:42:21.716Z,51.30
2023-03-31T16:44:59.927Z,51.10
2023-03-31T16:47:36.150Z,51.30
2023-03-31T16:50:07.187Z,51.30
2023-03-31T16:52:35.881Z,51.40
2023-03-31T16:55:02.860Z,51.50
2023-03-31T16:57:29.696Z,51.40
2023-03-31T16:59:58.887Z,51.40
2023-03-31T17:02:26.376Z,51.40
2023-03-31T17:04:56.580Z,51.60
2023-03-31T17:07:27.002Z,51.40
2023-03-31T17:09:53.835Z,51.40
2023-03-31T17:12:20.821Z,51.60
2023-03-31T17:14:47.536Z,51.20
2023-03-31T17:17:20.970Z,51.30
2023-03-31T17:19:51.580Z,51.10
2023-03-31T17:22:18.381Z,51.30
2023-03-31T17:24:45.244Z,51.40
2023-03-31T17:27:13.561Z,51.10
2023-03-31T17:29:40.378Z,51.30
2023-03-31T17:32:07.078Z,51.30
2023-03-31T17:34:33.852Z,51.10
2023-03-31T17:37:00.615Z,51.20
2023-03-31T17:39:27.661Z,51.30
2023-03-31T17:41:54.423Z,51.30
2023-03-31T17:44:21.216Z,51.00
2023-03-31T17:46:48.396Z,51.10
2023-03-31T17:49:15.213Z,51.20
2023-03-31T17:51:41.939Z,51.20
2023-03-31T17:54:08.661Z,50.90
2023-03-31T17:56:35.377Z,51.10
2023-03-31T17:59:02.382Z,51.30
2023-03-31T18:01:29.211Z,51.60
2023-03-31T18:03:56.903Z,51.50
2023-03-31T18:06:24.941Z,52.40
2023-03-31T18:08:51.616Z,51.80
2023-03-31T18:11:18.698Z,51.80
2023-03-31T18:13:46.142Z,51.80
2023-03-31T18:16:13.787Z,52.00
2023-03-31T18:18:41.682Z,52.40
2023-03-31T18:21:10.984Z,52.60
2023-03-31T18:23:38.400Z,52.70
2023-03-31T18:26:13.148Z,52.80
2023-03-31T18:28:40.827Z,53.40
2023-03-31T18:31:08.648Z,53.20
2023-03-31T18:33:36.122Z,53.00
2023-03-31T18:36:03.579Z,52.90
2023-03-31T18:38:30.478Z,53.10
2023-03-31T18:40:57.708Z,53.10
2023-03-31T18:43:25.224Z,53.10
2023-03-31T18:45:54.061Z,53.20
2023-03-31T18:48:22.332Z,53.30
2023-03-31T18:50:51.362Z,53.40
2023-03-31T18:53:19.312Z,53.30
2023-03-31T18:55:54.189Z,53.30
2023-03-31T18:58:21.133Z,53.20
2023-03-31T19:00:48.147Z,53.30
2023-03-31T19:03:15.060Z,53.60
2023-03-31T19:05:42.358Z,53.60
2023-03-31T19:08:09.196Z,53.60
2023-03-31T19:10:36.623Z,53.50
2023-03-31T19:13:03.628Z,53.30
2023-03-31T19:15:30.669Z,53.30
2023-03-31T19:17:57.638Z,53.60
2023-03-31T19:20:24.476Z,53.80
2023-03-31T19:22:52.092Z,53.70
2023-03-31T19:25:20.860Z,53.70
2023-03-31T19:27:47.862Z,53.40
2023-03-31T19:30:21.248Z,53.80
2023-03-31T19:32:49.025Z,53.70
2023-03-31T19:35:17.045Z,53.60
2023-03-31T19:37:44.609Z,53.30
2023-03-31T19:40:11.765Z,53.70
2023-03-31T19:42:38.717Z,53.50
2023-03-31T19:45:06.154Z,53.40
2023-03-31T19:47:32.904Z,53.70
2023-03-31T19:49:59.613Z,53.50
2023-03-31T19:52:26.493Z,53.40
2023-03-31T19:54:53.723Z,53.30
2023-03-31T19:57:20.586Z,53.70
2023-03-31T19:59:47.390Z,53.50
2023-03-31T20:02:14.703Z,53.30
2023-03-31T20:04:41.842Z,53.30
2023-03-31T20:07:09.689Z,53.50
2023-03-31T20:09:37.214Z,53.20
2023-03-31T20:12:04.216Z,53.00
2023-03-31T20:14:30.971Z,53.00
2023-03-31T20:17:00.813Z,53.00
2023-03-31T20:19:27.777Z,52.90
2023-03-31T20:21:56.017Z,52.90
2023-03-31T20:24:23.197Z,52.70
2023-03-31T20:26:49.999Z,52.70
2023-03-31T20:29:17.085Z,52.90
2023-03-31T20:31:44.025Z,52.80
2023-03-31T20:34:14.881Z,52.70
2023-03-31T20:36:43.161Z,52.70
2023-03-31T20:39:11.131Z,52.90
2023-03-31T20:41:38.577Z,53.20
2023-03-31T20:44:07.500Z,53.20
2023-03-31T20:46:34.556Z,53.40
2023-03-31T20:49:01.548Z,53.30
2023-03-31T20:51:32.406Z,53.60
2023-03-31T20:54:01.207Z,54.40
2023-03-31T20:56:34.177Z,54.00
2023-03-31T20:59:00.977Z,54.10
2023-03-31T21:01:30.882Z,54.50
2023-03-31T21:04:00.735Z,54.20
2023-03-31T21:06:29.915Z,54.60
2023-03-31T21:08:57.506Z,54.40
2023-03-31T21:11:25.229Z,54.40
2023-03-31T21:13:53.139Z,54.60
2023-03-31T21:16:20.825Z,54.30
2023-03-31T21:18:48.392Z,54.50
2023-03-31T21:21:19.325Z,54.50
2023-03-31T21:23:46.816Z,54.50
2023-03-31T21:26:15.690Z,54.30
2023-03-31T21:28:43.196Z,54.70
2023-03-31T21:31:09.993Z,54.60
2023-03-31T21:33:38.501Z,54.50
2023-03-31T21:36:13.371Z,54.70
2023-03-31T21:38:40.474Z,54.90
2023-03-31T21:41:09.950Z,54.60
2023-03-31T21:43:37.279Z,54.60
2023-03-31T21:46:04.539Z,54.50
2023-03-31T21:48:31.857Z,54.60
2023-03-31T21:51:00.700Z,55.40
2023-03-31T21:53:30.583Z,54.90
2023-03-31T21:55:58.176Z,54.80
2023-03-31T21:58:27.532Z,55.00
2023-03-31T22:01:00.352Z,55.20
2023-03-31T22:03:29.000Z,54.90
2023-03-31T22:05:56.657Z,55.10
2023-03-31T22:08:24.104Z,55.20
2023-03-31T22:10:51.916Z,55.10
2023-03-31T22:13:19.710Z,55.10
2023-03-31T22:15:46.668Z,54.90
2023-03-31T22:18:13.416Z,54.80
2023-03-31T22:20:40.963Z,55.00
2023-03-31T22:23:07.722Z,54.90
2023-03-31T22:25:34.515Z,54.90
2023-03-31T22:28:01.810Z,54.90
2023-03-31T22:30:28.674Z,54.80
2023-03-31T22:32:55.551Z,54.60
2023-03-31T22:35:24.212Z,54.50
2023-03-31T22:37:51.210Z,54.50
2023-03-31T22:40:18.151Z,54.90
2023-03-31T22:42:44.926Z,55.00
2023-03-31T22:45:11.619Z,54.70
2023-03-31T22:47:38.435Z,55.00
2023-03-31T22:50:06.044Z,54.80
2023-03-31T22:52:32.786Z,54.30
2023-03-31T22:54:59.527Z,54.60
2023-03-31T22:57:27.674Z,54.60
2023-03-31T22:59:54.546Z,54.70
2023-03-31T23:02:21.473Z,54.80
2023-03-31T23:04:48.269Z,54.60
2023-03-31T23:07:15.868Z,54.50
2023-03-31T23:09:42.697Z,54.40
2023-03-31T23:12:09.456Z,54.40
2023-03-31T23:14:36.291Z,54.50
2023-03-31T23:17:03.128Z,54.70
2023-03-31T23:19:29.912Z,54.30
2023-03-31T23:21:58.336Z,54.10
2023-03-31T23:24:25.313Z,54.10
2023-03-31T23:26:52.721Z,54.20
2023-03-31T23:29:19.478Z,54.30
2023-03-31T23:31:46.300Z,54.20
2023-03-31T23:34:13.949Z,54.20
2023-03-31T23:36:40.827Z,54.20
2023-03-31T23:39:07.658Z,54.30
2023-03-31T23:41:34.449Z,54.30
2023-03-31T23:44:01.196Z,54.30
2023-03-31T23:46:28.173Z,54.40
2023-03-31T23:48:55.719Z,54.20
2023-03-31T23:51:22.507Z,54.40
2023-03-31T23:53:50.167Z,54.40
2023-03-31T23:56:17.055Z,54.60
2023-03-31T23:58:45.090Z,54.80
